Edward G. Pitka Sr Airport Galena US
ICAO: PAGA
IATA:
Category: Medium
Scheduled Services:

Elevation: 153 ft
TransAlt. 18000 ft.

Airport Communications:
AWOS 3:132.525
ANCHORAGE CNTR:127
CTAF:123
FAIRBANKS RDO:122.2
GALENA OPS:39.12
PMSV METRO:134.5

PAGA Zoom In..

If Map Doesn't Load, Click Here

Runways:

(A) RW 06 length 2786 ft width 80 ft
---- / hdg 73

(B) RW 07 length 7249 ft width 150 ft
---- / hdg 72

(C) RW 24 length 2786 ft width 80 ft
---- / hdg 253

(D) RW 25 length 7249 ft width 150 ft
ILS 109.50 / hdg 252

Location; PAGA
Day. 26 / Time. 09.56 Zulu
* Altimeter: 30.24
* Temperature: 06° c. 42.8°f.
* Wind from: 000° Speed 00 kn.
Dewpoint: 04° c.
Visibility: 10 Statute Miles.
Clouds: Overcast 4100 ft.

PAGA 260956Z AUTO 00000KT 10SM OVC041 06/04 A3024 RMK AO2 SLP241 T00610039


Wind - Calm.

 
 
jpsmedia.com for Web Design worldairports.se 2018   terms of use